sensor_id;sensor_type;location;lat;lon;timestamp;P1;durP1;ratioP1;P2;durP2;ratioP2
3547;SDS011;1788;49.400;11.092;2022-07-12T00:02:23;1.43;;;1.33;;
3547;SDS011;1788;49.400;11.092;2022-07-12T00:04:50;1.43;;;1.33;;
3547;SDS011;1788;49.400;11.092;2022-07-12T00:07:17;1.80;;;1.37;;
3547;SDS011;1788;49.400;11.092;2022-07-12T00:09:44;1.20;;;1.10;;
3547;SDS011;1788;49.400;11.092;2022-07-12T00:12:11;1.40;;;1.30;;
3547;SDS011;1788;49.400;11.092;2022-07-12T00:14:37;1.47;;;1.37;;
3547;SDS011;1788;49.400;11.092;2022-07-12T00:17:04;1.30;;;1.20;;
3547;SDS011;1788;49.400;11.092;2022-07-12T00:19:31;1.33;;;1.20;;
3547;SDS011;1788;49.400;11.092;2022-07-12T00:21:58;1.47;;;1.30;;
3547;SDS011;1788;49.400;11.092;2022-07-12T00:24:25;1.47;;;1.37;;
3547;SDS011;1788;49.400;11.092;2022-07-12T00:26:52;1.40;;;1.30;;
3547;SDS011;1788;49.400;11.092;2022-07-12T00:29:19;1.57;;;1.20;;
3547;SDS011;1788;49.400;11.092;2022-07-12T00:31:45;1.30;;;1.20;;
3547;SDS011;1788;49.400;11.092;2022-07-12T00:34:12;1.50;;;1.40;;
3547;SDS011;1788;49.400;11.092;2022-07-12T00:36:39;1.37;;;1.27;;
3547;SDS011;1788;49.400;11.092;2022-07-12T00:39:05;1.40;;;1.30;;
3547;SDS011;1788;49.400;11.092;2022-07-12T00:41:32;1.63;;;1.53;;
3547;SDS011;1788;49.400;11.092;2022-07-12T00:43:58;1.43;;;1.33;;
3547;SDS011;1788;49.400;11.092;2022-07-12T00:46:25;1.30;;;1.27;;
3547;SDS011;1788;49.400;11.092;2022-07-12T00:48:52;1.47;;;1.37;;
3547;SDS011;1788;49.400;11.092;2022-07-12T00:51:18;1.33;;;1.20;;
3547;SDS011;1788;49.400;11.092;2022-07-12T00:53:45;1.77;;;1.67;;
3547;SDS011;1788;49.400;11.092;2022-07-12T00:56:12;1.40;;;1.30;;
3547;SDS011;1788;49.400;11.092;2022-07-12T00:58:39;1.60;;;1.50;;
3547;SDS011;1788;49.400;11.092;2022-07-12T01:01:06;1.30;;;1.20;;
3547;SDS011;1788;49.400;11.092;2022-07-12T01:03:33;1.97;;;1.60;;
3547;SDS011;1788;49.400;11.092;2022-07-12T01:06:00;1.43;;;1.30;;
3547;SDS011;1788;49.400;11.092;2022-07-12T01:08:26;1.27;;;1.17;;
3547;SDS011;1788;49.400;11.092;2022-07-12T01:10:53;1.50;;;1.27;;
3547;SDS011;1788;49.400;11.092;2022-07-12T01:13:20;1.70;;;1.60;;
3547;SDS011;1788;49.400;11.092;2022-07-12T01:15:46;1.40;;;1.30;;
3547;SDS011;1788;49.400;11.092;2022-07-12T01:18:13;1.53;;;1.40;;
3547;SDS011;1788;49.400;11.092;2022-07-12T01:20:40;1.40;;;1.30;;
3547;SDS011;1788;49.400;11.092;2022-07-12T01:23:07;1.47;;;1.37;;
3547;SDS011;1788;49.400;11.092;2022-07-12T01:25:34;1.40;;;1.30;;
3547;SDS011;1788;49.400;11.092;2022-07-12T01:28:00;1.27;;;1.17;;
3547;SDS011;1788;49.400;11.092;2022-07-12T01:30:27;1.63;;;1.53;;
3547;SDS011;1788;49.400;11.092;2022-07-12T01:32:54;1.57;;;1.47;;
3547;SDS011;1788;49.400;11.092;2022-07-12T01:35:21;1.47;;;1.37;;
3547;SDS011;1788;49.400;11.092;2022-07-12T01:37:48;1.60;;;1.50;;
3547;SDS011;1788;49.400;11.092;2022-07-12T01:40:15;1.17;;;1.07;;
3547;SDS011;1788;49.400;11.092;2022-07-12T01:42:41;1.33;;;1.23;;
3547;SDS011;1788;49.400;11.092;2022-07-12T01:45:08;1.93;;;1.33;;
3547;SDS011;1788;49.400;11.092;2022-07-12T01:47:35;1.37;;;1.27;;
3547;SDS011;1788;49.400;11.092;2022-07-12T01:52:29;1.43;;;1.33;;
3547;SDS011;1788;49.400;11.092;2022-07-12T01:54:56;1.40;;;1.30;;
3547;SDS011;1788;49.400;11.092;2022-07-12T01:57:23;1.60;;;1.53;;
3547;SDS011;1788;49.400;11.092;2022-07-12T01:59:50;1.50;;;1.40;;
3547;SDS011;1788;49.400;11.092;2022-07-12T02:02:17;1.53;;;1.43;;
3547;SDS011;1788;49.400;11.092;2022-07-12T02:04:43;1.67;;;1.57;;
3547;SDS011;1788;49.400;11.092;2022-07-12T02:07:10;1.40;;;1.30;;
3547;SDS011;1788;49.400;11.092;2022-07-12T02:09:36;1.30;;;1.20;;
3547;SDS011;1788;49.400;11.092;2022-07-12T02:12:03;1.30;;;1.20;;
3547;SDS011;1788;49.400;11.092;2022-07-12T02:14:30;2.67;;;1.23;;
3547;SDS011;1788;49.400;11.092;2022-07-12T02:16:56;1.33;;;1.30;;
3547;SDS011;1788;49.400;11.092;2022-07-12T02:19:23;1.90;;;1.70;;
3547;SDS011;1788;49.400;11.092;2022-07-12T02:21:50;1.43;;;1.33;;
3547;SDS011;1788;49.400;11.092;2022-07-12T02:24:17;1.70;;;1.60;;
3547;SDS011;1788;49.400;11.092;2022-07-12T02:26:44;2.87;;;1.47;;
3547;SDS011;1788;49.400;11.092;2022-07-12T02:29:10;1.47;;;1.40;;
3547;SDS011;1788;49.400;11.092;2022-07-12T02:31:37;1.70;;;1.57;;
3547;SDS011;1788;49.400;11.092;2022-07-12T02:34:05;1.70;;;1.57;;
3547;SDS011;1788;49.400;11.092;2022-07-12T02:36:32;1.53;;;1.43;;
3547;SDS011;1788;49.400;11.092;2022-07-12T02:41:26;1.80;;;1.70;;
3547;SDS011;1788;49.400;11.092;2022-07-12T02:43:53;1.87;;;1.77;;
3547;SDS011;1788;49.400;11.092;2022-07-12T02:46:20;1.57;;;1.47;;
3547;SDS011;1788;49.400;11.092;2022-07-12T02:48:47;1.40;;;1.30;;
3547;SDS011;1788;49.400;11.092;2022-07-12T02:51:14;3.13;;;1.57;;
3547;SDS011;1788;49.400;11.092;2022-07-12T02:53:41;1.70;;;1.50;;
3547;SDS011;1788;49.400;11.092;2022-07-12T02:56:09;2.10;;;1.50;;
3547;SDS011;1788;49.400;11.092;2022-07-12T02:58:36;1.50;;;1.43;;
3547;SDS011;1788;49.400;11.092;2022-07-12T03:01:03;1.90;;;1.53;;
3547;SDS011;1788;49.400;11.092;2022-07-12T03:03:30;2.47;;;1.60;;
3547;SDS011;1788;49.400;11.092;2022-07-12T03:05:57;2.00;;;1.77;;
3547;SDS011;1788;49.400;11.092;2022-07-12T03:08:24;1.83;;;1.63;;
3547;SDS011;1788;49.400;11.092;2022-07-12T03:10:50;1.50;;;1.40;;
3547;SDS011;1788;49.400;11.092;2022-07-12T03:13:17;1.97;;;1.50;;
3547;SDS011;1788;49.400;11.092;2022-07-12T03:15:43;2.40;;;1.80;;
3547;SDS011;1788;49.400;11.092;2022-07-12T03:18:11;1.20;;;1.10;;
3547;SDS011;1788;49.400;11.092;2022-07-12T03:20:37;1.83;;;1.60;;
3547;SDS011;1788;49.400;11.092;2022-07-12T03:23:04;1.70;;;1.60;;
3547;SDS011;1788;49.400;11.092;2022-07-12T03:25:31;1.63;;;1.53;;
3547;SDS011;1788;49.400;11.092;2022-07-12T03:27:58;1.90;;;1.80;;
3547;SDS011;1788;49.400;11.092;2022-07-12T03:30:24;1.80;;;1.67;;
3547;SDS011;1788;49.400;11.092;2022-07-12T03:32:51;1.90;;;1.80;;
3547;SDS011;1788;49.400;11.092;2022-07-12T03:35:17;1.87;;;1.77;;
3547;SDS011;1788;49.400;11.092;2022-07-12T03:37:46;1.93;;;1.83;;
3547;SDS011;1788;49.400;11.092;2022-07-12T03:40:11;1.57;;;1.47;;
3547;SDS011;1788;49.400;11.092;2022-07-12T03:42:37;1.80;;;1.70;;
3547;SDS011;1788;49.400;11.092;2022-07-12T03:45:04;2.87;;;2.00;;
3547;SDS011;1788;49.400;11.092;2022-07-12T03:47:30;1.73;;;1.63;;
3547;SDS011;1788;49.400;11.092;2022-07-12T03:49:58;1.90;;;1.50;;
3547;SDS011;1788;49.400;11.092;2022-07-12T03:52:24;3.10;;;2.00;;
3547;SDS011;1788;49.400;11.092;2022-07-12T03:54:52;1.50;;;1.40;;
3547;SDS011;1788;49.400;11.092;2022-07-12T03:57:18;1.67;;;1.57;;
3547;SDS011;1788;49.400;11.092;2022-07-12T03:59:45;1.87;;;1.77;;
3547;SDS011;1788;49.400;11.092;2022-07-12T04:02:12;1.47;;;1.40;;
3547;SDS011;1788;49.400;11.092;2022-07-12T04:04:39;1.77;;;1.67;;
3547;SDS011;1788;49.400;11.092;2022-07-12T04:07:05;1.97;;;1.87;;
3547;SDS011;1788;49.400;11.092;2022-07-12T04:09:31;1.63;;;1.53;;
3547;SDS011;1788;49.400;11.092;2022-07-12T04:11:58;1.70;;;1.60;;
3547;SDS011;1788;49.400;11.092;2022-07-12T04:14:25;2.10;;;1.93;;
3547;SDS011;1788;49.400;11.092;2022-07-12T04:16:52;3.37;;;2.10;;
3547;SDS011;1788;49.400;11.092;2022-07-12T04:19:19;1.70;;;1.60;;
3547;SDS011;1788;49.400;11.092;2022-07-12T04:21:45;2.07;;;1.77;;
3547;SDS011;1788;49.400;11.092;2022-07-12T04:24:12;2.30;;;2.10;;
3547;SDS011;1788;49.400;11.092;2022-07-12T04:26:39;2.67;;;2.00;;
3547;SDS011;1788;49.400;11.092;2022-07-12T04:29:05;2.57;;;2.07;;
3547;SDS011;1788;49.400;11.092;2022-07-12T04:31:32;2.17;;;1.70;;
3547;SDS011;1788;49.400;11.092;2022-07-12T04:33:58;1.57;;;1.47;;
3547;SDS011;1788;49.400;11.092;2022-07-12T04:36:25;1.60;;;1.50;;
3547;SDS011;1788;49.400;11.092;2022-07-12T04:38:52;2.33;;;2.13;;
3547;SDS011;1788;49.400;11.092;2022-07-12T04:41:18;2.33;;;2.13;;
3547;SDS011;1788;49.400;11.092;2022-07-12T04:43:45;1.77;;;1.67;;
3547;SDS011;1788;49.400;11.092;2022-07-12T04:46:11;2.53;;;2.37;;
3547;SDS011;1788;49.400;11.092;2022-07-12T04:48:38;2.43;;;2.23;;
3547;SDS011;1788;49.400;11.092;2022-07-12T04:51:05;2.20;;;2.00;;
3547;SDS011;1788;49.400;11.092;2022-07-12T04:53:31;2.30;;;2.10;;
3547;SDS011;1788;49.400;11.092;2022-07-12T04:55:59;2.20;;;2.00;;
3547;SDS011;1788;49.400;11.092;2022-07-12T04:58:25;2.30;;;2.10;;
3547;SDS011;1788;49.400;11.092;2022-07-12T05:00:53;2.50;;;2.30;;
3547;SDS011;1788;49.400;11.092;2022-07-12T05:03:19;3.43;;;2.27;;
3547;SDS011;1788;49.400;11.092;2022-07-12T05:05:47;2.43;;;2.23;;
3547;SDS011;1788;49.400;11.092;2022-07-12T05:08:13;2.47;;;2.30;;
3547;SDS011;1788;49.400;11.092;2022-07-12T05:10:40;2.57;;;2.37;;
3547;SDS011;1788;49.400;11.092;2022-07-12T05:13:06;3.07;;;2.70;;
3547;SDS011;1788;49.400;11.092;2022-07-12T05:15:33;3.67;;;3.43;;
3547;SDS011;1788;49.400;11.092;2022-07-12T05:18:00;3.83;;;3.07;;
3547;SDS011;1788;49.400;11.092;2022-07-12T05:20:27;3.07;;;2.87;;
3547;SDS011;1788;49.400;11.092;2022-07-12T05:22:54;4.83;;;3.23;;
3547;SDS011;1788;49.400;11.092;2022-07-12T05:25:21;3.27;;;3.07;;
3547;SDS011;1788;49.400;11.092;2022-07-12T05:27:48;3.00;;;2.80;;
3547;SDS011;1788;49.400;11.092;2022-07-12T05:30:14;2.90;;;2.50;;
3547;SDS011;1788;49.400;11.092;2022-07-12T05:32:41;3.43;;;2.77;;
3547;SDS011;1788;49.400;11.092;2022-07-12T05:35:08;3.37;;;3.17;;
3547;SDS011;1788;49.400;11.092;2022-07-12T05:37:35;3.07;;;2.90;;
3547;SDS011;1788;49.400;11.092;2022-07-12T05:40:02;2.93;;;2.70;;
3547;SDS011;1788;49.400;11.092;2022-07-12T05:42:29;4.57;;;3.50;;
3547;SDS011;1788;49.400;11.092;2022-07-12T05:44:55;3.27;;;2.83;;
3547;SDS011;1788;49.400;11.092;2022-07-12T05:47:22;3.57;;;3.30;;
3547;SDS011;1788;49.400;11.092;2022-07-12T05:49:49;2.50;;;2.30;;
3547;SDS011;1788;49.400;11.092;2022-07-12T05:52:16;3.00;;;2.70;;
3547;SDS011;1788;49.400;11.092;2022-07-12T05:54:43;2.70;;;2.40;;
3547;SDS011;1788;49.400;11.092;2022-07-12T05:57:09;2.73;;;1.60;;
3547;SDS011;1788;49.400;11.092;2022-07-12T05:59:36;2.57;;;2.37;;
3547;SDS011;1788;49.400;11.092;2022-07-12T06:02:03;4.23;;;2.77;;
3547;SDS011;1788;49.400;11.092;2022-07-12T06:04:29;2.30;;;2.10;;
3547;SDS011;1788;49.400;11.092;2022-07-12T06:06:56;2.63;;;2.43;;
3547;SDS011;1788;49.400;11.092;2022-07-12T06:09:23;3.10;;;2.80;;
3547;SDS011;1788;49.400;11.092;2022-07-12T06:11:50;2.90;;;2.57;;
3547;SDS011;1788;49.400;11.092;2022-07-12T06:14:16;2.57;;;2.37;;
3547;SDS011;1788;49.400;11.092;2022-07-12T06:16:43;3.40;;;2.20;;
3547;SDS011;1788;49.400;11.092;2022-07-12T06:19:10;2.63;;;2.43;;
3547;SDS011;1788;49.400;11.092;2022-07-12T06:21:36;5.27;;;2.27;;
3547;SDS011;1788;49.400;11.092;2022-07-12T06:24:03;2.70;;;2.43;;
3547;SDS011;1788;49.400;11.092;2022-07-12T06:26:30;2.20;;;2.00;;
3547;SDS011;1788;49.400;11.092;2022-07-12T06:28:58;1.67;;;1.60;;
3547;SDS011;1788;49.400;11.092;2022-07-12T06:31:24;1.73;;;1.63;;
3547;SDS011;1788;49.400;11.092;2022-07-12T06:33:51;1.83;;;1.80;;
3547;SDS011;1788;49.400;11.092;2022-07-12T06:36:17;1.50;;;1.40;;
3547;SDS011;1788;49.400;11.092;2022-07-12T06:38:44;1.63;;;1.53;;
3547;SDS011;1788;49.400;11.092;2022-07-12T06:41:11;1.73;;;1.63;;
3547;SDS011;1788;49.400;11.092;2022-07-12T06:43:38;2.13;;;1.97;;
3547;SDS011;1788;49.400;11.092;2022-07-12T06:46:05;1.93;;;1.83;;
3547;SDS011;1788;49.400;11.092;2022-07-12T06:48:31;2.37;;;1.60;;
3547;SDS011;1788;49.400;11.092;2022-07-12T06:50:58;1.70;;;1.60;;
3547;SDS011;1788;49.400;11.092;2022-07-12T06:53:25;2.07;;;1.93;;
3547;SDS011;1788;49.400;11.092;2022-07-12T06:55:52;2.13;;;1.97;;
3547;SDS011;1788;49.400;11.092;2022-07-12T06:58:19;1.77;;;1.63;;
3547;SDS011;1788;49.400;11.092;2022-07-12T07:00:46;2.67;;;2.10;;
3547;SDS011;1788;49.400;11.092;2022-07-12T07:03:12;2.27;;;2.07;;
3547;SDS011;1788;49.400;11.092;2022-07-12T07:05:39;2.97;;;2.00;;
3547;SDS011;1788;49.400;11.092;2022-07-12T07:08:07;2.27;;;1.87;;
3547;SDS011;1788;49.400;11.092;2022-07-12T07:10:33;2.40;;;2.20;;
3547;SDS011;1788;49.400;11.092;2022-07-12T07:13:00;2.73;;;1.90;;
3547;SDS011;1788;49.400;11.092;2022-07-12T07:15:27;1.87;;;1.77;;
3547;SDS011;1788;49.400;11.092;2022-07-12T07:17:54;2.57;;;2.23;;
3547;SDS011;1788;49.400;11.092;2022-07-12T07:20:21;2.30;;;2.00;;
3547;SDS011;1788;49.400;11.092;2022-07-12T07:22:47;2.23;;;2.03;;
3547;SDS011;1788;49.400;11.092;2022-07-12T07:25:14;3.17;;;2.30;;
3547;SDS011;1788;49.400;11.092;2022-07-12T07:27:40;1.90;;;1.80;;
3547;SDS011;1788;49.400;11.092;2022-07-12T07:30:07;1.80;;;1.73;;
3547;SDS011;1788;49.400;11.092;2022-07-12T07:32:34;1.77;;;1.67;;
3547;SDS011;1788;49.400;11.092;2022-07-12T07:35:00;1.70;;;1.60;;
3547;SDS011;1788;49.400;11.092;2022-07-12T07:37:27;2.20;;;2.00;;
3547;SDS011;1788;49.400;11.092;2022-07-12T07:39:55;2.17;;;1.97;;
3547;SDS011;1788;49.400;11.092;2022-07-12T07:42:21;2.97;;;2.30;;
3547;SDS011;1788;49.400;11.092;2022-07-12T07:44:49;2.87;;;2.07;;
3547;SDS011;1788;49.400;11.092;2022-07-12T07:47:15;2.13;;;1.97;;
3547;SDS011;1788;49.400;11.092;2022-07-12T07:49:43;1.87;;;1.67;;
3547;SDS011;1788;49.400;11.092;2022-07-12T07:52:09;3.20;;;2.23;;
3547;SDS011;1788;49.400;11.092;2022-07-12T07:54:37;2.67;;;2.03;;
3547;SDS011;1788;49.400;11.092;2022-07-12T07:57:04;1.57;;;1.40;;
3547;SDS011;1788;49.400;11.092;2022-07-12T07:59:31;2.40;;;1.80;;
3547;SDS011;1788;49.400;11.092;2022-07-12T08:01:57;2.27;;;2.07;;
3547;SDS011;1788;49.400;11.092;2022-07-12T08:04:24;2.63;;;2.00;;
3547;SDS011;1788;49.400;11.092;2022-07-12T08:06:51;2.37;;;2.13;;
3547;SDS011;1788;49.400;11.092;2022-07-12T08:09:18;1.80;;;1.60;;
3547;SDS011;1788;49.400;11.092;2022-07-12T08:11:45;1.80;;;1.70;;
3547;SDS011;1788;49.400;11.092;2022-07-12T08:14:12;1.60;;;1.50;;
3547;SDS011;1788;49.400;11.092;2022-07-12T08:16:39;1.60;;;1.50;;
3547;SDS011;1788;49.400;11.092;2022-07-12T08:19:06;1.87;;;1.60;;
3547;SDS011;1788;49.400;11.092;2022-07-12T08:21:33;1.83;;;1.60;;
3547;SDS011;1788;49.400;11.092;2022-07-12T08:24:00;1.50;;;1.40;;
3547;SDS011;1788;49.400;11.092;2022-07-12T08:26:27;1.13;;;1.03;;
3547;SDS011;1788;49.400;11.092;2022-07-12T08:28:53;1.10;;;1.00;;
3547;SDS011;1788;49.400;11.092;2022-07-12T08:31:20;1.33;;;1.23;;
3547;SDS011;1788;49.400;11.092;2022-07-12T08:33:47;1.60;;;1.50;;
3547;SDS011;1788;49.400;11.092;2022-07-12T08:36:14;1.50;;;1.30;;
3547;SDS011;1788;49.400;11.092;2022-07-12T08:38:41;1.67;;;1.57;;
3547;SDS011;1788;49.400;11.092;2022-07-12T08:41:07;1.40;;;1.30;;
3547;SDS011;1788;49.400;11.092;2022-07-12T08:43:34;1.40;;;1.30;;
3547;SDS011;1788;49.400;11.092;2022-07-12T08:48:28;1.20;;;1.10;;
3547;SDS011;1788;49.400;11.092;2022-07-12T08:53:22;1.23;;;1.20;;
3547;SDS011;1788;49.400;11.092;2022-07-12T08:55:49;1.77;;;1.50;;
3547;SDS011;1788;49.400;11.092;2022-07-12T08:58:16;1.17;;;1.13;;
3547;SDS011;1788;49.400;11.092;2022-07-12T09:00:42;1.20;;;1.10;;
3547;SDS011;1788;49.400;11.092;2022-07-12T09:03:09;1.47;;;1.30;;
3547;SDS011;1788;49.400;11.092;2022-07-12T09:05:35;1.60;;;1.47;;
3547;SDS011;1788;49.400;11.092;2022-07-12T09:10:28;1.43;;;1.30;;
3547;SDS011;1788;49.400;11.092;2022-07-12T09:12:55;1.67;;;1.20;;
3547;SDS011;1788;49.400;11.092;2022-07-12T09:15:23;1.20;;;1.10;;
3547;SDS011;1788;49.400;11.092;2022-07-12T09:20:15;1.13;;;1.03;;
3547;SDS011;1788;49.400;11.092;2022-07-12T09:25:15;1.73;;;1.23;;
3547;SDS011;1788;49.400;11.092;2022-07-12T09:27:35;0.80;;;0.70;;
3547;SDS011;1788;49.400;11.092;2022-07-12T09:30:02;0.93;;;0.87;;
3547;SDS011;1788;49.400;11.092;2022-07-12T09:32:29;0.80;;;0.70;;
3547;SDS011;1788;49.400;11.092;2022-07-12T09:34:56;1.00;;;0.90;;
3547;SDS011;1788;49.400;11.092;2022-07-12T09:37:23;2.53;;;1.17;;
3547;SDS011;1788;49.400;11.092;2022-07-12T09:39:51;1.20;;;1.10;;
3547;SDS011;1788;49.400;11.092;2022-07-12T09:42:17;4.10;;;1.60;;
3547;SDS011;1788;49.400;11.092;2022-07-12T09:44:44;1.00;;;0.90;;
3547;SDS011;1788;49.400;11.092;2022-07-12T09:47:11;1.53;;;0.67;;
3547;SDS011;1788;49.400;11.092;2022-07-12T09:49:37;1.00;;;0.90;;
3547;SDS011;1788;49.400;11.092;2022-07-12T09:52:05;1.10;;;1.00;;
3547;SDS011;1788;49.400;11.092;2022-07-12T09:54:31;1.33;;;1.23;;
3547;SDS011;1788;49.400;11.092;2022-07-12T09:56:59;1.00;;;0.90;;
3547;SDS011;1788;49.400;11.092;2022-07-12T09:59:27;1.03;;;0.97;;
3547;SDS011;1788;49.400;11.092;2022-07-12T10:01:51;1.40;;;1.30;;
3547;SDS011;1788;49.400;11.092;2022-07-12T10:04:20;1.47;;;1.37;;
3547;SDS011;1788;49.400;11.092;2022-07-12T10:06:45;1.53;;;1.37;;
3547;SDS011;1788;49.400;11.092;2022-07-12T10:09:12;1.10;;;1.00;;
3547;SDS011;1788;49.400;11.092;2022-07-12T10:11:38;2.27;;;1.00;;
3547;SDS011;1788;49.400;11.092;2022-07-12T10:14:05;1.03;;;0.93;;
3547;SDS011;1788;49.400;11.092;2022-07-12T10:16:33;1.03;;;1.00;;
3547;SDS011;1788;49.400;11.092;2022-07-12T10:21:25;0.90;;;0.80;;
3547;SDS011;1788;49.400;11.092;2022-07-12T10:23:51;0.93;;;0.83;;
3547;SDS011;1788;49.400;11.092;2022-07-12T10:31:12;1.70;;;0.97;;
3547;SDS011;1788;49.400;11.092;2022-07-12T10:33:38;0.87;;;0.77;;
3547;SDS011;1788;49.400;11.092;2022-07-12T10:36:06;1.17;;;1.00;;
3547;SDS011;1788;49.400;11.092;2022-07-12T10:38:32;1.07;;;0.97;;
3547;SDS011;1788;49.400;11.092;2022-07-12T10:41:15;1.00;;;0.90;;
3547;SDS011;1788;49.400;11.092;2022-07-12T10:43:27;1.10;;;1.00;;
3547;SDS011;1788;49.400;11.092;2022-07-12T10:45:53;1.10;;;1.00;;
3547;SDS011;1788;49.400;11.092;2022-07-12T10:48:22;1.90;;;1.00;;
3547;SDS011;1788;49.400;11.092;2022-07-12T10:50:50;1.07;;;0.97;;
3547;SDS011;1788;49.400;11.092;2022-07-12T10:55:48;1.13;;;1.03;;
3547;SDS011;1788;49.400;11.092;2022-07-12T10:58:09;1.10;;;1.03;;
3547;SDS011;1788;49.400;11.092;2022-07-12T11:00:35;0.90;;;0.80;;
3547;SDS011;1788;49.400;11.092;2022-07-12T11:03:02;0.80;;;0.70;;
3547;SDS011;1788;49.400;11.092;2022-07-12T11:05:29;2.80;;;1.23;;
3547;SDS011;1788;49.400;11.092;2022-07-12T11:07:55;1.07;;;0.93;;
3547;SDS011;1788;49.400;11.092;2022-07-12T11:10:22;1.67;;;1.30;;
3547;SDS011;1788;49.400;11.092;2022-07-12T11:12:49;1.03;;;0.93;;
3547;SDS011;1788;49.400;11.092;2022-07-12T11:15:16;0.93;;;0.70;;
3547;SDS011;1788;49.400;11.092;2022-07-12T11:17:43;1.00;;;0.90;;
3547;SDS011;1788;49.400;11.092;2022-07-12T11:20:10;1.00;;;0.90;;
3547;SDS011;1788;49.400;11.092;2022-07-12T11:22:37;1.27;;;1.00;;
3547;SDS011;1788;49.400;11.092;2022-07-12T11:25:04;0.93;;;0.83;;
3547;SDS011;1788;49.400;11.092;2022-07-12T11:27:30;1.40;;;1.20;;
3547;SDS011;1788;49.400;11.092;2022-07-12T11:29:57;0.90;;;0.80;;
3547;SDS011;1788;49.400;11.092;2022-07-12T11:32:32;0.90;;;0.80;;
3547;SDS011;1788;49.400;11.092;2022-07-12T11:34:52;0.90;;;0.80;;
3547;SDS011;1788;49.400;11.092;2022-07-12T11:37:16;1.33;;;1.23;;
3547;SDS011;1788;49.400;11.092;2022-07-12T11:39:43;0.90;;;0.80;;
3547;SDS011;1788;49.400;11.092;2022-07-12T11:42:10;1.10;;;1.00;;
3547;SDS011;1788;49.400;11.092;2022-07-12T11:47:04;0.83;;;0.73;;
3547;SDS011;1788;49.400;11.092;2022-07-12T11:49:30;1.13;;;1.03;;
3547;SDS011;1788;49.400;11.092;2022-07-12T11:51:57;1.73;;;0.93;;
3547;SDS011;1788;49.400;11.092;2022-07-12T11:54:25;0.80;;;0.73;;
3547;SDS011;1788;49.400;11.092;2022-07-12T11:57:04;1.00;;;0.90;;
3547;SDS011;1788;49.400;11.092;2022-07-12T12:02:01;0.87;;;0.77;;
3547;SDS011;1788;49.400;11.092;2022-07-12T12:04:12;1.23;;;0.87;;
3547;SDS011;1788;49.400;11.092;2022-07-12T12:06:39;0.80;;;0.70;;
3547;SDS011;1788;49.400;11.092;2022-07-12T12:09:06;1.33;;;0.90;;
3547;SDS011;1788;49.400;11.092;2022-07-12T12:11:33;0.83;;;0.73;;
3547;SDS011;1788;49.400;11.092;2022-07-12T12:13:59;2.67;;;1.17;;
3547;SDS011;1788;49.400;11.092;2022-07-12T12:16:31;1.23;;;1.10;;
3547;SDS011;1788;49.400;11.092;2022-07-12T12:18:53;1.00;;;0.90;;
3547;SDS011;1788;49.400;11.092;2022-07-12T12:21:25;0.60;;;0.60;;
3547;SDS011;1788;49.400;11.092;2022-07-12T12:23:47;0.93;;;0.83;;
3547;SDS011;1788;49.400;11.092;2022-07-12T12:26:15;1.20;;;1.10;;
3547;SDS011;1788;49.400;11.092;2022-07-12T12:28:41;0.80;;;0.70;;
3547;SDS011;1788;49.400;11.092;2022-07-12T12:31:08;0.80;;;0.70;;
3547;SDS011;1788;49.400;11.092;2022-07-12T12:33:35;0.77;;;0.70;;
3547;SDS011;1788;49.400;11.092;2022-07-12T12:38:28;1.10;;;1.00;;
3547;SDS011;1788;49.400;11.092;2022-07-12T12:40:54;0.87;;;0.77;;
3547;SDS011;1788;49.400;11.092;2022-07-12T12:43:21;1.37;;;1.10;;
3547;SDS011;1788;49.400;11.092;2022-07-12T12:48:17;0.90;;;0.80;;
3547;SDS011;1788;49.400;11.092;2022-07-12T12:50:42;1.03;;;0.93;;
3547;SDS011;1788;49.400;11.092;2022-07-12T12:55:34;1.00;;;0.90;;
3547;SDS011;1788;49.400;11.092;2022-07-12T12:58:00;1.73;;;1.63;;
3547;SDS011;1788;49.400;11.092;2022-07-12T13:00:28;2.63;;;0.90;;
3547;SDS011;1788;49.400;11.092;2022-07-12T13:02:54;1.00;;;0.90;;
3547;SDS011;1788;49.400;11.092;2022-07-12T13:05:21;1.17;;;1.07;;
3547;SDS011;1788;49.400;11.092;2022-07-12T13:07:48;3.20;;;1.00;;
3547;SDS011;1788;49.400;11.092;2022-07-12T13:10:15;1.03;;;0.93;;
3547;SDS011;1788;49.400;11.092;2022-07-12T13:12:42;0.90;;;0.80;;
3547;SDS011;1788;49.400;11.092;2022-07-12T13:15:08;2.10;;;0.73;;
3547;SDS011;1788;49.400;11.092;2022-07-12T13:17:35;0.90;;;0.90;;
3547;SDS011;1788;49.400;11.092;2022-07-12T13:22:29;1.00;;;0.90;;
3547;SDS011;1788;49.400;11.092;2022-07-12T13:24:56;0.87;;;0.80;;
3547;SDS011;1788;49.400;11.092;2022-07-12T13:27:22;0.80;;;0.70;;
3547;SDS011;1788;49.400;11.092;2022-07-12T13:29:49;0.80;;;0.70;;
3547;SDS011;1788;49.400;11.092;2022-07-12T13:32:16;1.07;;;0.97;;
3547;SDS011;1788;49.400;11.092;2022-07-12T13:34:43;0.97;;;0.87;;
3547;SDS011;1788;49.400;11.092;2022-07-12T13:37:10;0.90;;;0.80;;
3547;SDS011;1788;49.400;11.092;2022-07-12T13:39:37;4.70;;;1.20;;
3547;SDS011;1788;49.400;11.092;2022-07-12T13:42:03;1.20;;;1.10;;
3547;SDS011;1788;49.400;11.092;2022-07-12T13:44:30;1.37;;;0.97;;
3547;SDS011;1788;49.400;11.092;2022-07-12T13:46:57;1.00;;;0.90;;
3547;SDS011;1788;49.400;11.092;2022-07-12T13:49:24;1.20;;;1.10;;
3547;SDS011;1788;49.400;11.092;2022-07-12T13:51:51;0.93;;;0.83;;
3547;SDS011;1788;49.400;11.092;2022-07-12T13:54:18;1.30;;;1.20;;
3547;SDS011;1788;49.400;11.092;2022-07-12T13:56:45;2.37;;;1.37;;
3547;SDS011;1788;49.400;11.092;2022-07-12T13:59:12;0.80;;;0.70;;
3547;SDS011;1788;49.400;11.092;2022-07-12T14:01:39;1.20;;;1.10;;
3547;SDS011;1788;49.400;11.092;2022-07-12T14:04:05;1.10;;;1.00;;
3547;SDS011;1788;49.400;11.092;2022-07-12T14:06:32;0.90;;;0.80;;
3547;SDS011;1788;49.400;11.092;2022-07-12T14:08:58;1.20;;;1.10;;
3547;SDS011;1788;49.400;11.092;2022-07-12T14:11:26;1.07;;;0.97;;
3547;SDS011;1788;49.400;11.092;2022-07-12T14:13:52;1.20;;;1.10;;
3547;SDS011;1788;49.400;11.092;2022-07-12T14:16:19;0.90;;;0.80;;
3547;SDS011;1788;49.400;11.092;2022-07-12T14:18:46;1.00;;;0.90;;
3547;SDS011;1788;49.400;11.092;2022-07-12T14:21:12;1.30;;;1.20;;
3547;SDS011;1788;49.400;11.092;2022-07-12T14:23:39;1.10;;;1.00;;
3547;SDS011;1788;49.400;11.092;2022-07-12T14:26:06;1.13;;;1.03;;
3547;SDS011;1788;49.400;11.092;2022-07-12T14:28:33;1.27;;;1.17;;
3547;SDS011;1788;49.400;11.092;2022-07-12T14:30:59;0.97;;;0.93;;
3547;SDS011;1788;49.400;11.092;2022-07-12T14:33:26;1.03;;;0.93;;
3547;SDS011;1788;49.400;11.092;2022-07-12T14:35:53;1.03;;;1.00;;
3547;SDS011;1788;49.400;11.092;2022-07-12T14:38:20;1.20;;;1.10;;
3547;SDS011;1788;49.400;11.092;2022-07-12T14:40:47;1.17;;;1.10;;
3547;SDS011;1788;49.400;11.092;2022-07-12T14:43:13;1.40;;;1.30;;
3547;SDS011;1788;49.400;11.092;2022-07-12T14:45:40;1.50;;;1.40;;
3547;SDS011;1788;49.400;11.092;2022-07-12T14:48:06;0.90;;;0.80;;
3547;SDS011;1788;49.400;11.092;2022-07-12T14:50:33;1.27;;;1.07;;
3547;SDS011;1788;49.400;11.092;2022-07-12T14:53:00;1.00;;;0.90;;
3547;SDS011;1788;49.400;11.092;2022-07-12T14:55:26;1.03;;;0.97;;
3547;SDS011;1788;49.400;11.092;2022-07-12T14:57:53;1.07;;;0.87;;
3547;SDS011;1788;49.400;11.092;2022-07-12T15:00:20;0.93;;;0.83;;
3547;SDS011;1788;49.400;11.092;2022-07-12T15:02:47;0.87;;;0.77;;
3547;SDS011;1788;49.400;11.092;2022-07-12T15:05:14;2.03;;;1.13;;
3547;SDS011;1788;49.400;11.092;2022-07-12T15:07:40;0.87;;;0.83;;
3547;SDS011;1788;49.400;11.092;2022-07-12T15:10:07;0.83;;;0.73;;
3547;SDS011;1788;49.400;11.092;2022-07-12T15:12:33;0.77;;;0.67;;
3547;SDS011;1788;49.400;11.092;2022-07-12T15:15:01;0.83;;;0.77;;
3547;SDS011;1788;49.400;11.092;2022-07-12T15:17:27;1.03;;;0.93;;
3547;SDS011;1788;49.400;11.092;2022-07-12T15:19:55;1.23;;;1.13;;
3547;SDS011;1788;49.400;11.092;2022-07-12T15:22:21;0.90;;;0.80;;
3547;SDS011;1788;49.400;11.092;2022-07-12T15:24:48;0.73;;;0.70;;
3547;SDS011;1788;49.400;11.092;2022-07-12T15:27:15;0.80;;;0.70;;
3547;SDS011;1788;49.400;11.092;2022-07-12T15:29:41;1.07;;;1.00;;
3547;SDS011;1788;49.400;11.092;2022-07-12T15:32:09;1.20;;;1.10;;
3547;SDS011;1788;49.400;11.092;2022-07-12T15:34:36;0.90;;;0.80;;
3547;SDS011;1788;49.400;11.092;2022-07-12T15:37:02;0.90;;;0.80;;
3547;SDS011;1788;49.400;11.092;2022-07-12T15:39:29;1.00;;;0.90;;